Tuesday, November 21, 2017, 10:48 AM EST
Back to Local

KSEG, Selinsgrove Penn Valley Airport

Location: Selinsgrove, PA, United States Lat: 40.817
Local Time: 10:48 AM EST (15:48 GMT) Lon: -76.867
Time Zone: US/Eastern Elev: 449 ft

Show me the last for .
Show Decoded

2017-11-21 09:53 METAR KSEG 211453Z AUTO 20005KT 10SM CLR 06/M02 A3006 RMK AO2 SLP184 T00611022
                 50000 =
2017-11-21 08:53 METAR KSEG 211353Z AUTO 00000KT 10SM CLR 02/M01 A3007 RMK AO2 SLP186 T00221006 =
2017-11-21 07:53 METAR KSEG 211253Z AUTO 00000KT 10SM CLR M03/M03 A3007 RMK AO2 SLP186 T10281033
                 =
2017-11-21 06:53 METAR KSEG 211153Z AUTO 00000KT 10SM CLR M04/M06 A3006 RMK AO2 SLP185 I1000
                 I6000 T10441056 11017 21044 56002 $ =
2017-11-21 05:53 METAR KSEG 211053Z AUTO 00000KT 10SM CLR M04/M04 A3007 RMK AO2 SLP187 I1000
                 T10391044 $ =
2017-11-21 04:53 METAR KSEG 210953Z AUTO 00000KT 10SM CLR M03/M04 A3006 RMK AO2 SLP183 I1000
                 T10331044 $ =
2017-11-21 03:53 METAR KSEG 210853Z AUTO 00000KT 10SM CLR M03/M04 A3007 RMK AO2 SLP186 T10331039
                 58007 $ =
2017-11-21 02:53 METAR KSEG 210753Z AUTO 00000KT 10SM CLR M03/M04 A3008 RMK AO2 SLP190 T10281039
                 $ =
2017-11-21 01:53 METAR KSEG 210653Z AUTO 00000KT 10SM CLR M03/M04 A3009 RMK AO2 SLP193 T10281039
                 $ =
2017-11-21 00:53 METAR KSEG 210553Z AUTO 00000KT 10SM CLR M03/M04 A3009 RMK AO2 SLP193 T10281039
                 10044 21028 58005 $ =
2017-11-20 23:53 METAR KSEG 210453Z AUTO 00000KT 10SM CLR M02/M04 A3010 RMK AO2 SLP196 T10171039
                 400831017 $ =
2017-11-20 22:53 METAR KSEG 210353Z AUTO 00000KT 10SM CLR M01/M03 A3011 RMK AO2 SLP199 T10111033
                 $ =
2017-11-20 21:53 METAR KSEG 210253Z AUTO 00000KT 10SM CLR M01/M03 A3011 RMK AO2 SLP199 T10111033
                 53003 $ =
2017-11-20 20:53 METAR KSEG 210153Z AUTO 22004KT 10SM CLR 03/M04 A3010 RMK AO2 SLP197 T00281039 $
                 =
2017-11-20 19:53 METAR KSEG 210053Z AUTO 25003KT 10SM CLR 04/M04 A3010 RMK AO2 SLP197 T00391039 $
                 =
2017-11-20 18:53 METAR KSEG 202353Z AUTO 00000KT 10SM CLR 04/M04 A3010 RMK AO2 SLP196 T00441044
                 10083 20028 53006 $ =
2017-11-20 17:53 METAR KSEG 202253Z AUTO 26003KT 10SM CLR 04/M03 A3009 RMK AO2 SLP194 T00391033 $
                 =
2017-11-20 16:53 METAR KSEG 202153Z AUTO 23004KT 10SM CLR 06/M04 A3008 RMK AO2 SLP190 T00611039 $
                 =
2017-11-20 15:53 METAR KSEG 202053Z AUTO 24007KT 10SM CLR 08/M04 A3008 RMK AO2 SLP189 T00781044
                 53001 $ =
2017-11-20 14:53 METAR KSEG 201953Z AUTO 23009KT 10SM CLR 07/M04 A3007 RMK AO2 SLP186 T00721039 $
                 =
2017-11-20 13:53 METAR KSEG 201853Z AUTO 24007KT 10SM CLR 07/M03 A3008 RMK AO2 SLP189 T00721033 $
                 =
2017-11-20 12:53 METAR KSEG 201753Z AUTO 25008KT 10SM CLR 07/M03 A3008 RMK AO2 SLP187 T00671033
                 10067 20017 58015 $ =
2017-11-20 11:53 METAR KSEG 201653Z AUTO 28007KT 10SM CLR 06/M03 A3009 RMK AO2 SLP193 T00611033 $
                 =
2017-11-20 10:53 METAR KSEG 201553Z AUTO 29008G15KT 10SM OVC042 04/M04 A3012 RMK AO2 SLP202
                 T00441039 $ =

Support USWX by starting your Amazon purchase here.